Time;durP1;ratioP1;P1;durP2;ratioP2;P2;SDS_P1;SDS_P2;PMS_P1;PMS_P2;Temp;Humidity;BMP_temperature;BMP_pressure;BME280_temperature;BME280_humidity;BME280_pressure;Samples;Min_cycle;Max_cycle;Signal;HPM_P1;HPM_P2
2023/05/27 00:00:00;;;;;;;24.30;4.20;;;;;;;9.86;59.80;101832.60;110780;1209;96885;-59
2023/05/27 00:02:26;;;;;;;27.80;4.40;;;;;;;9.85;59.77;101837.09;110825;1209;95803;-60
2023/05/27 00:04:52;;;;;;;16.70;4.20;;;;;;;9.84;59.96;101833.55;110729;1212;139070;-59
2023/05/27 00:07:17;;;;;;;29.80;4.60;;;;;;;9.82;59.93;101828.41;110812;1209;97576;-60
2023/05/27 00:09:42;;;;;;;29.10;4.50;;;;;;;9.80;59.90;101825.42;110636;1212;139769;-60
2023/05/27 00:12:07;;;;;;;18.60;3.90;;;;;;;9.77;60.03;101824.05;110889;1212;97573;-60
2023/05/27 00:14:33;;;;;;;25.80;4.80;;;;;;;9.76;60.18;101826.02;110849;1212;97732;-60
2023/05/27 00:16:59;;;;;;;20.00;3.70;;;;;;;9.74;60.23;101824.30;110721;1209;139517;-59
2023/05/27 00:19:24;;;;;;;23.80;5.80;;;;;;;9.72;60.23;101825.77;110836;1212;97859;-59
2023/05/27 00:21:52;;;;;;;23.60;5.40;;;;;;;9.70;60.31;101833.30;110745;1210;139917;-60
2023/05/27 00:24:18;;;;;;;18.60;4.80;;;;;;;9.69;60.52;101836.89;110842;1212;99061;-60
2023/05/27 00:26:43;;;;;;;15.10;5.70;;;;;;;9.68;60.50;101835.66;111033;1209;97700;-59
2023/05/27 00:29:09;;;;;;;21.20;4.90;;;;;;;9.66;60.61;101836.79;110777;1210;138864;-60
2023/05/27 00:31:34;;;;;;;18.80;4.40;;;;;;;9.63;60.66;101837.56;110883;1209;97626;-59
2023/05/27 00:33:59;;;;;;;24.40;4.80;;;;;;;9.58;60.83;101839.26;110823;1212;139962;-59
2023/05/27 00:36:24;;;;;;;18.90;5.20;;;;;;;9.57;60.87;101836.25;110950;1209;97603;-64
2023/05/27 00:38:50;;;;;;;25.80;5.30;;;;;;;9.54;60.92;101836.86;110960;1212;97673;-64
2023/05/27 00:41:15;;;;;;;18.20;4.90;;;;;;;9.50;61.15;101837.11;110801;1209;138477;-59
2023/05/27 00:43:40;;;;;;;24.30;5.90;;;;;;;9.47;61.16;101839.31;110843;1209;98051;-61
2023/05/27 00:46:06;;;;;;;24.60;5.00;;;;;;;9.43;61.31;101840.98;110710;1207;139357;-61
2023/05/27 00:48:31;;;;;;;23.80;5.20;;;;;;;9.42;61.30;101838.33;110819;1209;97668;-62
2023/05/27 00:50:57;;;;;;;22.00;4.90;;;;;;;9.41;61.51;101839.95;110742;1210;139583;-59
2023/05/27 00:53:23;;;;;;;28.10;5.20;;;;;;;9.38;61.54;101842.33;110858;1212;97584;-59
2023/05/27 00:55:52;;;;;;;22.80;4.40;;;;;;;9.36;61.61;101845.23;110798;1209;97568;-61
2023/05/27 00:58:20;;;;;;;17.50;4.20;;;;;;;9.33;61.85;101841.00;110719;1209;140800;-59
2023/05/27 01:00:46;;;;;;;21.60;5.00;;;;;;;9.33;61.96;101846.00;110800;1210;100411;-60
2023/05/27 01:03:11;;;;;;;18.20;3.60;;;;;;;9.32;61.85;101846.91;110693;1212;138980;-63
2023/05/27 01:05:38;;;;;;;18.20;4.50;;;;;;;9.28;61.98;101846.62;110811;1210;97698;-59
2023/05/27 01:08:20;;;;;;;30.70;5.80;;;;;;;9.26;62.11;101847.21;110800;1210;112822;-60
2023/05/27 01:10:50;;;;;;;12.00;3.30;;;;;;;9.22;62.34;101850.30;110673;1212;138937;-60
2023/05/27 01:13:30;;;;;;;22.10;5.10;;;;;;;9.21;62.39;101849.27;110902;1209;107866;-61
2023/05/27 01:16:01;;;;;;;27.00;4.50;;;;;;;9.20;62.55;101852.67;110656;1208;140001;-60
2023/05/27 01:18:29;;;;;;;21.90;4.40;;;;;;;9.19;62.64;101849.30;110811;1209;97683;-60
2023/05/27 01:21:02;;;;;;;15.60;4.50;;;;;;;9.18;62.52;101853.25;110732;1209;138749;-59
2023/05/27 01:23:28;;;;;;;25.40;4.30;;;;;;;9.16;62.57;101852.92;110860;1212;100096;-60
2023/05/27 01:25:54;;;;;;;23.50;5.20;;;;;;;9.10;62.66;101849.64;110796;1209;97713;-60
2023/05/27 01:28:19;;;;;;;29.60;4.90;;;;;;;9.06;62.75;101852.02;110788;1209;140220;-60
2023/05/27 01:30:44;;;;;;;25.20;5.70;;;;;;;9.04;62.80;101847.79;110799;1212;97667;-60
2023/05/27 01:33:16;;;;;;;23.60;4.80;;;;;;;9.01;62.94;101852.84;110715;1212;139079;-60
2023/05/27 01:35:50;;;;;;;19.80;4.30;;;;;;;9.00;63.16;101850.35;110771;1212;107030;-60
2023/05/27 01:38:18;;;;;;;21.60;5.60;;;;;;;9.00;63.23;101850.70;110807;1209;97689;-60
2023/05/27 01:40:45;;;;;;;33.30;6.60;;;;;;;8.99;63.22;101852.69;110760;1209;140111;-60
2023/05/27 01:43:11;;;;;;;20.60;5.00;;;;;;;8.98;63.32;101848.60;110934;1209;97591;-61
2023/05/27 01:45:37;;;;;;;22.40;4.50;;;;;;;8.97;63.37;101846.31;110810;1212;138570;-61
2023/05/27 01:48:03;;;;;;;24.20;5.60;;;;;;;8.96;63.45;101847.02;110944;1209;97566;-61
2023/05/27 01:50:30;;;;;;;21.90;4.90;;;;;;;8.97;63.66;101847.02;110910;1209;97881;-61
2023/05/27 01:52:56;;;;;;;21.60;4.90;;;;;;;8.97;63.60;101844.16;110699;1213;140144;-61
2023/05/27 01:55:22;;;;;;;21.80;4.90;;;;;;;8.96;63.58;101838.83;110831;1209;97695;-61
2023/05/27 01:57:47;;;;;;;24.30;4.90;;;;;;;8.94;63.60;101839.58;110713;1208;140958;-61
2023/05/27 02:00:13;;;;;;;21.10;4.70;;;;;;;8.90;63.56;101839.83;110824;1212;97662;-61
2023/05/27 02:02:38;;;;;;;27.20;4.90;;;;;;;8.88;63.82;101841.83;110839;1208;98128;-62
2023/05/27 02:05:04;;;;;;;24.00;5.50;;;;;;;8.88;63.96;101836.47;110754;1212;140072;-61
2023/05/27 02:07:29;;;;;;;21.30;5.30;;;;;;;8.89;63.97;101837.71;110858;1209;97594;-62
2023/05/27 02:09:54;;;;;;;21.20;4.60;;;;;;;8.88;63.95;101836.66;110770;1209;138943;-61
2023/05/27 02:12:20;;;;;;;24.50;4.90;;;;;;;8.85;63.98;101835.11;110899;1211;99753;-61
2023/05/27 02:14:46;;;;;;;28.80;5.00;;;;;;;8.83;63.90;101836.94;110824;1210;97744;-61
2023/05/27 02:17:14;;;;;;;22.60;5.10;;;;;;;8.80;64.02;101834.30;110754;1209;138736;-61
2023/05/27 02:19:40;;;;;;;19.90;4.60;;;;;;;8.81;64.13;101831.61;110859;1210;111397;-62
2023/05/27 02:22:05;;;;;;;24.00;5.40;;;;;;;8.80;64.16;101835.19;110793;1208;140259;-61
2023/05/27 02:24:30;;;;;;;18.40;5.90;;;;;;;8.80;64.34;101835.55;110863;1210;97881;-61
2023/05/27 02:26:56;;;;;;;18.80;5.80;;;;;;;8.81;64.37;101833.40;110678;1209;139518;-61
2023/05/27 02:29:21;;;;;;;19.60;5.50;;;;;;;8.80;64.47;101830.56;110933;1208;97679;-62
2023/05/27 02:31:46;;;;;;;19.60;5.20;;;;;;;8.78;64.45;101831.84;110761;1208;97673;-61
2023/05/27 02:34:11;;;;;;;19.10;5.00;;;;;;;8.76;64.58;101832.76;110701;1209;139677;-61
2023/05/27 02:36:37;;;;;;;17.30;5.50;;;;;;;8.75;64.62;101831.89;110892;1209;97665;-61
2023/05/27 02:39:02;;;;;;;23.10;5.20;;;;;;;8.75;64.62;101836.53;110713;1209;139249;-61
2023/05/27 02:41:27;;;;;;;26.40;5.40;;;;;;;8.71;64.61;101840.33;110852;1209;98900;-60
2023/05/27 02:43:54;;;;;;;22.80;5.30;;;;;;;8.68;64.78;101846.63;110832;1208;98280;-61
2023/05/27 02:46:20;;;;;;;32.20;7.20;;;;;;;8.64;64.80;101848.46;110795;1212;139249;-61
2023/05/27 02:48:46;;;;;;;18.90;5.50;;;;;;;8.60;64.76;101851.20;110959;1208;97640;-61
2023/05/27 02:51:11;;;;;;;28.80;5.90;;;;;;;8.57;65.02;101849.46;110758;1208;138775;-61
2023/05/27 02:53:36;;;;;;;26.90;5.70;;;;;;;8.57;65.09;101846.98;110824;1212;97989;-61
2023/05/27 02:56:02;;;;;;;23.60;4.90;;;;;;;8.57;65.18;101851.97;110865;1208;97616;-60
2023/05/27 02:58:27;;;;;;;20.60;4.50;;;;;;;8.57;65.33;101851.96;110704;1210;141119;-61
2023/05/27 03:00:52;;;;;;;33.20;7.30;;;;;;;8.57;65.35;101850.36;110853;1212;98019;-61
2023/05/27 03:03:17;;;;;;;21.00;4.50;;;;;;;8.58;65.46;101853.20;110710;1208;139907;-61
2023/05/27 03:05:43;;;;;;;31.90;5.60;;;;;;;8.58;65.38;101855.15;110848;1212;97704;-60
2023/05/27 03:08:08;;;;;;;19.20;5.10;;;;;;;8.57;65.48;101856.95;110819;1208;97566;-60
2023/05/27 03:10:33;;;;;;;17.80;5.60;;;;;;;8.57;65.46;101858.73;110709;1212;140165;-61
2023/05/27 03:12:59;;;;;;;27.80;4.70;;;;;;;8.57;65.74;101859.10;110882;1212;97601;-61
2023/05/27 03:15:24;;;;;;;38.30;6.40;;;;;;;8.59;65.77;101858.89;110716;1208;138706;-60
2023/05/27 03:17:49;;;;;;;23.70;5.70;;;;;;;8.58;65.67;101857.30;110901;1212;97720;-60
2023/05/27 03:20:16;;;;;;;21.70;4.60;;;;;;;8.56;65.75;101856.78;110802;1208;97564;-61
2023/05/27 03:22:42;;;;;;;18.10;4.90;;;;;;;8.57;65.94;101860.88;110688;1212;139587;-61
2023/05/27 03:25:08;;;;;;;26.40;5.40;;;;;;;8.59;66.01;101863.52;110802;1212;97888;-61
2023/05/27 03:27:33;;;;;;;25.40;5.10;;;;;;;8.61;66.05;101863.30;110755;1208;139122;-61
2023/05/27 03:29:59;;;;;;;21.30;5.10;;;;;;;8.61;66.01;101863.30;110786;1212;97631;-60
2023/05/27 03:32:24;;;;;;;18.70;4.80;;;;;;;8.61;66.07;101861.16;110896;1212;98094;-61
2023/05/27 03:34:50;;;;;;;34.60;5.80;;;;;;;8.63;66.33;101864.88;110776;1213;138893;-60
2023/05/27 03:37:15;;;;;;;21.50;5.20;;;;;;;8.64;66.24;101865.92;110943;1208;97588;-60
2023/05/27 03:39:40;;;;;;;23.30;5.90;;;;;;;8.64;66.34;101864.68;110866;1208;139070;-60
2023/05/27 03:42:06;;;;;;;18.80;5.20;;;;;;;8.66;66.44;101872.48;110964;1209;97713;-60
2023/05/27 03:44:32;;;;;;;19.80;5.30;;;;;;;8.68;66.53;101869.79;111026;1208;97504;-61
2023/05/27 03:46:57;;;;;;;26.80;5.40;;;;;;;8.67;66.53;101873.38;110830;1212;138756;-61
2023/05/27 03:49:23;;;;;;;28.00;6.10;;;;;;;8.67;66.59;101871.94;110983;1208;97609;-60
2023/05/27 03:51:49;;;;;;;19.70;5.20;;;;;;;8.70;66.69;101874.20;110842;1212;140182;-60
2023/05/27 03:54:14;;;;;;;24.20;5.70;;;;;;;8.73;66.76;101877.55;110934;1212;97680;-61
2023/05/27 03:56:40;;;;;;;25.50;5.90;;;;;;;8.77;66.82;101881.93;110956;1212;97598;-60
2023/05/27 03:59:06;;;;;;;24.10;5.40;;;;;;;8.79;66.73;101887.44;110904;1208;139521;-61
2023/05/27 04:01:32;;;;;;;22.90;5.50;;;;;;;8.79;66.66;101891.35;110902;1212;97633;-60
2023/05/27 04:03:57;;;;;;;29.20;7.10;;;;;;;8.78;66.89;101894.91;110931;1208;140088;-60
2023/05/27 04:06:23;;;;;;;24.50;4.60;;;;;;;8.80;66.79;101895.98;110959;1212;97801;-61
2023/05/27 04:08:48;;;;;;;21.70;4.90;;;;;;;8.81;66.92;101898.63;110870;1208;97697;-61
2023/05/27 04:11:14;;;;;;;24.60;5.70;;;;;;;8.82;66.88;101899.69;110856;1208;140089;-60
2023/05/27 04:13:40;;;;;;;25.40;5.20;;;;;;;8.82;66.94;101900.56;110997;1209;97609;-61
2023/05/27 04:16:06;;;;;;;22.00;5.80;;;;;;;8.85;67.07;101902.67;110771;1212;138482;-60
2023/05/27 04:18:32;;;;;;;15.70;5.30;;;;;;;8.88;67.11;101905.29;110807;1208;97575;-61
2023/05/27 04:20:58;;;;;;;19.90;5.70;;;;;;;8.94;67.08;101905.90;110744;1212;140780;-61
2023/05/27 04:23:23;;;;;;;22.80;5.40;;;;;;;8.99;67.30;101907.60;110860;1208;109785;-60
2023/05/27 04:25:49;;;;;;;25.90;5.50;;;;;;;9.04;67.28;101912.14;110799;1208;97584;-61
2023/05/27 04:28:15;;;;;;;28.30;6.00;;;;;;;9.06;67.27;101913.01;110754;1208;138643;-61
2023/05/27 04:30:41;;;;;;;26.30;5.80;;;;;;;9.09;67.39;101914.73;110801;1209;97841;-60
2023/05/27 04:33:07;;;;;;;18.70;4.60;;;;;;;9.14;67.45;101916.61;110855;1207;139794;-60
2023/05/27 04:35:33;;;;;;;23.80;5.20;;;;;;;9.19;67.33;101915.47;110971;1209;97699;-61
2023/05/27 04:38:00;;;;;;;25.10;4.70;;;;;;;9.21;67.55;101916.48;110814;1208;97686;-61
2023/05/27 04:40:26;;;;;;;16.20;4.20;;;;;;;9.27;67.55;101917.27;110721;1208;138898;-60
2023/05/27 04:42:52;;;;;;;22.30;5.50;;;;;;;9.33;67.64;101918.77;110861;1212;97643;-60
2023/05/27 04:45:18;;;;;;;19.40;5.70;;;;;;;9.39;67.75;101917.24;110782;1208;140715;-61
2023/05/27 04:47:44;;;;;;;17.50;4.80;;;;;;;9.45;67.69;101916.77;110766;1213;97799;-60
2023/05/27 04:50:10;;;;;;;20.40;4.90;;;;;;;9.52;67.76;101915.05;110890;1212;97363;-60
2023/05/27 04:52:41;;;;;;;34.10;5.60;;;;;;;9.58;67.73;101915.64;110777;1209;139416;-60
2023/05/27 04:55:09;;;;;;;17.00;4.60;;;;;;;9.61;67.79;101912.00;110883;1213;100010;-61
2023/05/27 04:57:35;;;;;;;15.40;4.70;;;;;;;9.62;67.87;101912.54;110803;1208;140226;-61
2023/05/27 05:02:34;;;;;;;20.10;6.50;;;;;;;9.64;68.03;101916.41;110939;1208;97589;-61
2023/05/27 05:05:08;;;;;;;22.50;5.30;;;;;;;9.66;68.01;101912.27;110662;1209;139472;-61
2023/05/27 05:07:35;;;;;;;19.40;4.70;;;;;;;9.70;68.09;101915.41;111025;1212;99182;-60
2023/05/27 05:10:00;;;;;;;17.40;5.00;;;;;;;9.72;68.14;101913.05;110682;1208;140082;-61
2023/05/27 05:12:26;;;;;;;29.80;6.10;;;;;;;9.76;68.20;101920.11;110844;1213;97688;-61
2023/05/27 05:14:51;;;;;;;19.90;4.70;;;;;;;9.81;68.23;101919.48;110881;1208;97616;-59
2023/05/27 05:17:17;;;;;;;21.00;5.30;;;;;;;9.87;68.40;101917.23;110736;1210;140529;-61
2023/05/27 05:19:44;;;;;;;25.30;6.10;;;;;;;9.90;68.39;101915.20;110876;1209;97722;-59
2023/05/27 05:22:10;;;;;;;20.70;5.70;;;;;;;9.92;68.44;101915.33;110884;1228;138839;-59
2023/05/27 05:24:36;;;;;;;19.90;4.90;;;;;;;9.93;68.50;101913.71;110828;1212;111251;-59
2023/05/27 05:27:01;;;;;;;20.70;4.70;;;;;;;9.94;68.60;101909.39;110701;1212;139374;-59
2023/05/27 05:29:26;;;;;;;16.40;5.80;;;;;;;9.97;68.63;101910.77;110862;1208;97559;-60
2023/05/27 05:31:51;;;;;;;19.30;4.80;;;;;;;10.03;68.65;101913.13;110808;1212;97617;-59
2023/05/27 05:34:17;;;;;;;21.00;5.40;;;;;;;10.09;68.65;101910.86;110793;1210;138459;-59
2023/05/27 05:36:42;;;;;;;19.20;5.00;;;;;;;10.14;68.70;101911.48;110771;1212;97680;-62
2023/05/27 05:39:07;;;;;;;18.60;6.00;;;;;;;10.23;68.77;101911.13;110792;1208;138655;-59
2023/05/27 05:41:33;;;;;;;24.10;4.90;;;;;;;10.31;68.72;101914.16;110806;1209;111846;-60
2023/05/27 05:43:58;;;;;;;16.40;5.30;;;;;;;10.42;68.64;101917.30;110762;1208;97699;-60
2023/05/27 05:46:23;;;;;;;18.60;4.90;;;;;;;10.52;68.69;101919.75;110745;1208;140298;-59
2023/05/27 05:48:52;;;;;;;22.70;5.90;;;;;;;10.60;68.60;101923.13;110836;1208;96889;-59
2023/05/27 05:51:17;;;;;;;19.60;5.30;;;;;;;10.70;68.61;101923.61;110730;1212;139761;-60
2023/05/27 05:53:42;;;;;;;14.40;4.50;;;;;;;10.81;68.53;101929.25;110773;1208;97550;-60
2023/05/27 05:56:07;;;;;;;36.90;6.50;;;;;;;10.89;68.46;101926.73;110878;1212;97685;-60
2023/05/27 05:58:33;;;;;;;22.70;5.80;;;;;;;10.99;68.41;101927.75;110689;1209;139588;-60
2023/05/27 06:00:58;;;;;;;34.40;5.90;;;;;;;11.09;68.48;101929.81;110887;1212;98161;-61
2023/05/27 06:03:23;;;;;;;28.80;7.00;;;;;;;11.19;68.41;101929.21;110677;1208;141624;-60
2023/05/27 06:05:49;;;;;;;21.70;5.60;;;;;;;11.28;68.28;101932.02;110820;1209;96881;-60
2023/05/27 06:08:14;;;;;;;21.10;5.60;;;;;;;11.36;68.17;101932.87;110793;1209;111501;-60
2023/05/27 06:10:39;;;;;;;21.40;4.90;;;;;;;11.46;68.19;101932.09;110683;1212;140029;-61
2023/05/27 06:13:05;;;;;;;21.50;5.70;;;;;;;11.53;68.09;101930.12;110848;1209;97965;-61
2023/05/27 06:15:31;;;;;;;23.20;5.40;;;;;;;11.59;68.03;101928.50;110715;1208;140143;-61
2023/05/27 06:17:56;;;;;;;20.50;5.10;;;;;;;11.67;68.00;101935.64;110800;1209;97716;-60
2023/05/27 06:20:23;;;;;;;28.80;5.90;;;;;;;11.74;67.89;101935.63;110917;1208;97588;-60
2023/05/27 06:22:48;;;;;;;18.50;4.20;;;;;;;11.80;67.70;101938.89;110698;1212;138600;-63
2023/05/27 06:25:14;;;;;;;19.80;5.00;;;;;;;11.86;67.61;101939.08;110904;1212;94970;-60
2023/05/27 06:27:39;;;;;;;20.20;4.10;;;;;;;11.92;67.64;101938.36;110782;1213;140394;-60
2023/05/27 06:30:06;;;;;;;20.60;5.40;;;;;;;11.99;67.39;101939.06;110798;1208;97616;-61
2023/05/27 06:32:31;;;;;;;15.60;4.20;;;;;;;12.07;67.34;101942.98;110829;1208;99809;-61
2023/05/27 06:34:56;;;;;;;25.80;4.40;;;;;;;12.16;67.24;101943.41;110795;1209;139272;-61
2023/05/27 06:37:21;;;;;;;14.90;3.40;;;;;;;12.27;67.19;101938.95;110885;1212;97621;-61
2023/05/27 06:39:47;;;;;;;19.70;3.90;;;;;;;12.37;66.96;101941.16;110787;1208;138488;-61
2023/05/27 06:42:13;;;;;;;13.50;3.60;;;;;;;12.46;66.75;101944.30;110862;1208;97813;-61
2023/05/27 06:44:38;;;;;;;13.80;3.80;;;;;;;12.55;66.67;101944.03;110888;1208;97616;-61
2023/05/27 06:47:04;;;;;;;13.50;3.70;;;;;;;12.65;66.45;101943.00;110762;1208;138509;-61
2023/05/27 06:49:29;;;;;;;14.10;3.10;;;;;;;12.73;66.20;101942.39;110830;1208;97613;-60
2023/05/27 06:51:54;;;;;;;15.10;3.20;;;;;;;12.84;66.02;101943.49;110660;1208;139849;-61
2023/05/27 06:54:20;;;;;;;13.30;3.20;;;;;;;12.93;65.87;101941.21;110963;1209;97776;-61
2023/05/27 06:56:45;;;;;;;15.60;3.60;;;;;;;13.03;65.55;101939.59;110798;1208;97591;-60
2023/05/27 06:59:11;;;;;;;12.60;3.10;;;;;;;13.12;65.21;101942.70;110816;1208;139483;-61
2023/05/27 07:01:36;;;;;;;10.00;3.20;;;;;;;13.19;65.08;101943.20;110805;1212;97695;-60
2023/05/27 07:04:01;;;;;;;13.60;3.10;;;;;;;13.28;64.98;101940.41;110722;1212;138393;-60
2023/05/27 07:06:27;;;;;;;15.30;3.40;;;;;;;13.36;64.72;101936.55;110859;1210;97755;-61
2023/05/27 07:08:52;;;;;;;13.80;2.80;;;;;;;13.44;64.60;101936.06;110847;1210;97619;-60
2023/05/27 07:11:17;;;;;;;14.80;2.60;;;;;;;13.58;64.43;101932.34;110824;1212;138227;-60
2023/05/27 07:13:43;;;;;;;13.60;3.00;;;;;;;13.67;63.97;101927.71;110817;1208;97590;-60
2023/05/27 07:16:08;;;;;;;11.40;3.40;;;;;;;13.72;63.77;101926.66;110745;1212;138662;-61
2023/05/27 07:18:33;;;;;;;14.30;3.00;;;;;;;13.76;63.46;101924.71;110929;1212;97675;-60
2023/05/27 07:20:58;;;;;;;11.80;2.30;;;;;;;13.83;63.26;101926.61;110692;1208;138702;-60
2023/05/27 07:23:24;;;;;;;9.20;2.70;;;;;;;13.90;63.03;101925.98;110830;1224;97648;-61
2023/05/27 07:25:49;;;;;;;10.50;2.30;;;;;;;13.94;62.53;101926.73;110866;1208;96111;-61
2023/05/27 07:28:15;;;;;;;9.50;2.20;;;;;;;14.00;62.25;101921.48;110848;1210;139259;-60
2023/05/27 07:30:40;;;;;;;10.30;2.20;;;;;;;14.08;62.05;101919.04;110819;1212;108024;-61
2023/05/27 07:33:05;;;;;;;10.70;2.90;;;;;;;14.13;61.78;101915.96;110706;1208;139504;-61
2023/05/27 07:35:31;;;;;;;10.00;2.50;;;;;;;14.17;61.52;101920.48;110897;1212;98011;-61
2023/05/27 07:37:56;;;;;;;5.60;2.30;;;;;;;14.20;61.27;101920.55;110805;1212;97588;-61
2023/05/27 07:40:21;;;;;;;12.60;2.50;;;;;;;14.24;60.93;101917.52;110747;1212;137964;-61
2023/05/27 07:42:47;;;;;;;8.70;2.20;;;;;;;14.30;60.62;101909.92;110811;1212;97591;-60
2023/05/27 07:45:12;;;;;;;9.70;2.20;;;;;;;14.37;60.38;101913.41;110733;1212;138578;-60
2023/05/27 07:47:37;;;;;;;9.90;2.30;;;;;;;14.44;60.16;101912.65;110905;1208;98075;-61
2023/05/27 07:50:03;;;;;;;14.10;2.30;;;;;;;14.48;59.91;101911.41;110756;1212;97598;-60
2023/05/27 07:52:28;;;;;;;4.90;2.10;;;;;;;14.52;59.59;101913.37;110796;1208;138455;-60
2023/05/27 07:54:54;;;;;;;16.50;2.50;;;;;;;14.54;59.39;101914.04;110809;1208;97711;-61
2023/05/27 07:57:19;;;;;;;10.60;2.10;;;;;;;14.57;59.08;101914.64;110691;1212;139814;-61
2023/05/27 07:59:44;;;;;;;8.20;2.40;;;;;;;14.64;58.79;101905.73;110869;1208;98880;-60
2023/05/27 08:02:10;;;;;;;8.80;2.40;;;;;;;14.66;58.41;101907.63;110847;1212;97617;-61
2023/05/27 08:04:35;;;;;;;9.10;2.30;;;;;;;14.71;57.98;101907.05;110820;1209;138743;-60
2023/05/27 08:07:00;;;;;;;9.80;2.00;;;;;;;14.76;57.82;101901.83;110781;1212;97700;-60
2023/05/27 08:09:26;;;;;;;7.00;2.00;;;;;;;14.78;57.36;101898.84;110701;1208;138421;-61
2023/05/27 08:11:51;;;;;;;5.20;1.30;;;;;;;14.79;57.14;101896.31;111010;1212;97598;-60
2023/05/27 08:14:16;;;;;;;8.50;2.00;;;;;;;14.80;56.94;101890.69;110910;1209;97581;-61
2023/05/27 08:16:42;;;;;;;6.80;1.90;;;;;;;14.83;56.47;101884.95;110825;1210;137864;-61
2023/05/27 08:19:07;;;;;;;4.90;1.40;;;;;;;14.88;56.14;101886.55;110844;1208;98020;-61
2023/05/27 08:21:32;;;;;;;4.60;1.00;;;;;;;14.96;55.67;101885.33;110702;1212;137776;-61
2023/05/27 08:23:58;;;;;;;1.80;1.40;;;;;;;15.04;55.30;101889.66;110853;1208;97594;-60
2023/05/27 08:26:23;;;;;;;2.60;1.30;;;;;;;15.06;54.19;101882.58;110833;1212;97828;-61
2023/05/27 08:28:48;;;;;;;7.00;1.20;;;;;;;14.97;53.50;101877.02;110787;1208;139517;-60
2023/05/27 08:31:14;;;;;;;3.10;1.30;;;;;;;14.95;53.10;101874.02;110836;1212;98032;-61
2023/05/27 08:33:39;;;;;;;3.00;1.70;;;;;;;15.03;52.87;101876.39;110786;1208;138411;-61
2023/05/27 08:36:05;;;;;;;4.90;1.20;;;;;;;15.14;52.72;101873.04;110836;1208;112040;-61
2023/05/27 08:38:31;;;;;;;4.30;1.30;;;;;;;15.23;52.31;101873.73;110886;1208;96464;-61
2023/05/27 08:40:57;;;;;;;4.60;1.20;;;;;;;15.30;51.95;101866.04;110787;1210;137685;-61
2023/05/27 08:43:23;;;;;;;4.50;1.50;;;;;;;15.36;51.78;101864.88;110939;1212;98859;-61
2023/05/27 08:45:49;;;;;;;7.90;1.80;;;;;;;15.43;51.63;101861.33;110738;1209;138854;-61
2023/05/27 08:48:15;;;;;;;5.90;1.70;;;;;;;15.52;51.60;101859.86;110889;1214;97824;-61
2023/05/27 08:50:40;;;;;;;9.50;1.70;;;;;;;15.57;51.01;101856.77;110912;1212;97725;-60
2023/05/27 08:53:08;;;;;;;11.40;2.00;;;;;;;15.60;50.03;101858.27;110812;1212;138339;-59
2023/05/27 08:55:34;;;;;;;8.50;2.40;;;;;;;15.54;49.34;101862.81;110811;1211;97582;-60
2023/05/27 08:58:01;;;;;;;5.90;1.90;;;;;;;15.50;49.29;101860.11;110857;1208;138225;-59
2023/05/27 09:00:28;;;;;;;7.90;1.70;;;;;;;15.50;48.91;101857.61;110799;1223;97690;-60
2023/05/27 09:02:59;;;;;;;5.90;2.30;;;;;;;15.40;48.40;101858.20;110911;1209;97752;-59
2023/05/27 09:05:25;;;;;;;7.40;1.80;;;;;;;15.44;48.41;101857.54;110871;1212;111902;-60
2023/05/27 09:07:51;;;;;;;4.10;1.50;;;;;;;15.55;48.33;101852.34;110797;1209;96389;-59
2023/05/27 09:10:16;;;;;;;10.90;2.10;;;;;;;15.66;48.25;101855.08;110728;1212;138609;-59
2023/05/27 09:12:45;;;;;;;5.90;2.10;;;;;;;15.79;47.96;101854.31;110866;1208;96017;-59
2023/05/27 09:15:12;;;;;;;4.40;1.70;;;;;;;15.91;47.95;101854.81;110753;1212;138596;-59
2023/05/27 09:17:41;;;;;;;9.30;2.30;;;;;;;15.99;47.93;101847.98;110948;1209;97681;-60
2023/05/27 09:20:07;;;;;;;3.20;1.40;;;;;;;16.04;47.41;101851.16;110815;1209;106575;-60
2023/05/27 09:22:33;;;;;;;4.80;1.60;;;;;;;16.11;47.49;101849.40;110864;1210;139738;-60
2023/05/27 09:24:59;;;;;;;6.50;1.60;;;;;;;16.19;47.34;101853.48;110938;1212;97700;-60
2023/05/27 09:27:27;;;;;;;5.40;1.70;;;;;;;16.33;47.27;101852.10;110706;1210;138219;-60
2023/05/27 09:29:52;;;;;;;7.90;1.80;;;;;;;16.43;47.15;101845.65;110773;1209;97573;-61
2023/05/27 09:32:30;;;;;;;9.00;1.80;;;;;;;16.49;46.83;101842.86;110737;1209;97745;-60
2023/05/27 09:34:55;;;;;;;12.00;1.40;;;;;;;16.55;46.90;101849.06;110634;1210;138804;-61
2023/05/27 09:37:25;;;;;;;5.30;1.30;;;;;;;16.62;46.80;101847.29;110834;1212;97687;-60
2023/05/27 09:39:54;;;;;;;4.30;1.40;;;;;;;16.70;46.27;101847.10;110657;1210;138480;-61
2023/05/27 09:42:20;;;;;;;6.60;2.10;;;;;;;16.72;45.96;101839.05;110855;1208;99670;-61
2023/05/27 09:44:48;;;;;;;4.40;1.70;;;;;;;16.71;45.00;101838.02;110728;1208;97655;-61
2023/05/27 09:47:16;;;;;;;5.40;1.40;;;;;;;16.69;44.08;101842.09;110719;1210;139213;-61
2023/05/27 09:49:42;;;;;;;6.30;1.40;;;;;;;16.68;44.22;101849.17;110788;1209;103435;-61
2023/05/27 09:52:11;;;;;;;9.60;1.70;;;;;;;16.72;43.83;101844.98;110739;1212;139494;-61
2023/05/27 09:54:37;;;;;;;4.10;1.20;;;;;;;16.73;43.96;101843.70;110896;1209;107884;-61
2023/05/27 09:57:05;;;;;;;6.60;1.40;;;;;;;16.81;43.61;101843.61;110685;1212;138481;-61
2023/05/27 09:59:31;;;;;;;4.90;1.20;;;;;;;16.86;42.83;101837.06;110921;1209;97731;-60
2023/05/27 10:01:58;;;;;;;6.90;1.70;;;;;;;16.90;42.83;101841.53;110828;1212;97675;-59
2023/05/27 10:04:23;;;;;;;8.30;1.60;;;;;;;16.98;42.70;101837.88;110762;1210;139086;-59
2023/05/27 10:06:49;;;;;;;4.40;1.70;;;;;;;17.06;42.48;101839.45;110782;1209;97723;-59
2023/05/27 10:09:16;;;;;;;2.90;1.50;;;;;;;17.08;42.21;101837.55;110926;1208;139614;-61
2023/05/27 10:11:44;;;;;;;8.60;1.80;;;;;;;17.13;41.97;101839.47;110809;1212;97609;-60
2023/05/27 10:14:10;;;;;;;4.70;1.70;;;;;;;17.17;41.90;101838.34;110996;1209;96481;-61
2023/05/27 10:16:36;;;;;;;5.60;1.50;;;;;;;17.26;42.06;101836.83;110733;1209;137906;-60
2023/05/27 10:19:02;;;;;;;7.80;2.20;;;;;;;17.39;41.94;101835.23;110902;1209;97595;-60
2023/05/27 10:21:29;;;;;;;2.30;1.30;;;;;;;17.42;41.54;101830.89;110739;1220;138451;-61
2023/05/27 10:23:59;;;;;;;6.20;1.30;;;;;;;17.49;41.46;101829.46;110917;1208;97661;-59
2023/05/27 10:26:38;;;;;;;16.30;1.90;;;;;;;17.62;41.26;101832.70;110867;1213;99184;-59
2023/05/27 10:29:15;;;;;;;3.50;1.30;;;;;;;17.70;40.87;101829.96;110684;1208;138271;-61
2023/05/27 10:31:48;;;;;;;3.70;1.50;;;;;;;17.73;40.61;101827.27;110818;1213;97662;-61
2023/05/27 10:34:14;;;;;;;6.00;1.50;;;;;;;17.66;40.52;101823.27;110774;1213;137774;-59
2023/05/27 10:36:40;;;;;;;5.20;1.80;;;;;;;17.62;40.12;101825.65;110926;1208;97619;-60
2023/05/27 10:39:13;;;;;;;5.90;1.60;;;;;;;17.58;39.46;101822.63;110770;1208;138110;-59
2023/05/27 10:41:42;;;;;;;8.40;2.10;;;;;;;17.57;39.79;101823.05;110906;1208;97604;-59
2023/05/27 10:44:08;;;;;;;9.80;2.80;;;;;;;17.71;39.56;101821.93;110909;1212;102308;-59
2023/05/27 10:46:44;;;;;;;2.60;1.30;;;;;;;17.76;39.20;101826.89;110741;1208;138549;-59
2023/05/27 10:49:27;;;;;;;5.00;1.40;;;;;;;17.87;39.14;101823.97;110875;1208;99370;-61
2023/05/27 10:51:54;;;;;;;5.80;1.50;;;;;;;17.86;38.50;101820.40;110703;1208;138961;-60
2023/05/27 10:54:19;;;;;;;6.60;1.40;;;;;;;17.84;38.66;101816.89;110892;1213;97855;-59
2023/05/27 10:56:51;;;;;;;5.10;1.40;;;;;;;17.95;38.72;101815.57;110865;1210;98138;-60
2023/05/27 10:59:22;;;;;;;4.80;1.20;;;;;;;18.12;38.77;101813.52;110805;1212;139261;-61
2023/05/27 11:01:55;;;;;;;4.60;1.10;;;;;;;18.33;38.54;101809.02;110846;1208;97595;-60
2023/05/27 11:04:21;;;;;;;3.10;1.30;;;;;;;18.41;38.07;101812.36;110812;1208;138385;-60
2023/05/27 11:07:00;;;;;;;9.10;1.40;;;;;;;18.41;37.64;101802.77;110966;1211;97687;-60
2023/05/27 11:09:26;;;;;;;3.80;1.50;;;;;;;18.35;37.42;101802.75;110913;1212;138597;-60